Time;durP1;ratioP1;P1;durP2;ratioP2;P2;SDS_P1;SDS_P2;PMS_P1;PMS_P2;Temp;Humidity;BMP_temperature;BMP_pressure;BME280_temperature;BME280_humidity;BME280_pressure;Samples;Min_cycle;Max_cycle;Signal;HPM_P1;HPM_P2
2022/05/25 00:00:42;;;;;;;2.28;0.43;;;;;;;11.39;75.85;100413.78;4992839;28;20134;-78
2022/05/25 00:03:45;;;;;;;5.22;0.65;;;;;;;11.46;75.61;100421.28;4992646;28;20497;-78
2022/05/25 00:06:49;;;;;;;3.58;0.40;;;;;;;11.52;75.38;100415.66;4984094;28;20409;-78
2022/05/25 00:09:52;;;;;;;8.05;0.55;;;;;;;11.52;75.51;100415.66;5012372;28;20052;-78
2022/05/25 00:12:57;;;;;;;3.00;0.60;;;;;;;11.46;75.64;100418.66;5012361;28;20052;-78
2022/05/25 00:16:00;;;;;;;3.65;0.47;;;;;;;11.28;76.31;100423.16;5012086;28;20080;-78
2022/05/25 00:23:03;;;;;;;1.98;0.85;;;;;;;11.49;75.17;100426.34;4996400;28;20067;-78
2022/05/25 00:26:07;;;;;;;2.05;0.47;;;;;;;11.59;74.93;100417.03;4996206;28;20042;-78
2022/05/25 00:29:11;;;;;;;4.97;0.77;;;;;;;11.65;75.26;100411.44;4996045;28;20077;-78
2022/05/25 00:32:14;;;;;;;2.92;0.77;;;;;;;11.55;74.92;100431.19;4995855;28;20500;-78
2022/05/25 00:35:20;;;;;;;1.80;0.60;;;;;;;11.36;75.60;100424.44;4995851;28;20114;-78
2022/05/25 00:38:24;;;;;;;8.48;1.95;;;;;;;11.35;76.17;100422.72;5014651;28;20551;-78
2022/05/25 00:41:30;;;;;;;3.35;0.77;;;;;;;11.51;75.72;100427.06;5015699;28;20053;-78
2022/05/25 00:44:33;;;;;;;3.25;0.60;;;;;;;11.43;75.95;100437.16;5015382;28;20428;-78
2022/05/25 00:47:40;;;;;;;8.60;1.65;;;;;;;11.52;75.87;100437.47;5015264;28;20048;-78
2022/05/25 00:54:13;;;;;;;3.78;0.60;;;;;;;11.36;76.75;100432.28;5015238;28;20088;-78
2022/05/25 00:57:33;;;;;;;1.52;0.60;;;;;;;11.24;77.23;100432.13;5015039;28;20472;-78
2022/05/25 01:00:37;;;;;;;2.15;0.60;;;;;;;11.28;77.01;100439.72;5014897;28;20112;-78
2022/05/25 01:03:40;;;;;;;2.25;0.57;;;;;;;11.31;76.94;100439.53;5014987;28;20508;-78
2022/05/25 01:07:07;;;;;;;4.63;0.80;;;;;;;11.18;77.58;100438.53;5013749;28;20049;-78
2022/05/25 01:10:26;;;;;;;3.63;0.88;;;;;;;11.30;77.32;100437.03;5015117;28;20052;-78
2022/05/25 01:13:50;;;;;;;2.60;0.70;;;;;;;11.38;76.69;100440.03;5003066;28;20176;-78
2022/05/25 01:17:09;;;;;;;4.22;0.60;;;;;;;11.34;76.73;100447.22;5014893;28;20053;-78
2022/05/25 01:20:28;;;;;;;3.05;0.98;;;;;;;11.22;77.21;100445.28;5014748;28;20128;-78
2022/05/25 01:23:57;;;;;;;2.55;0.70;;;;;;;11.15;77.47;100441.34;5014575;28;20061;-78
2022/05/25 01:27:00;;;;;;;6.40;0.80;;;;;;;11.12;77.28;100442.34;5014574;28;20107;-78
2022/05/25 01:30:11;;;;;;;5.18;0.60;;;;;;;11.00;77.73;100450.03;5014147;28;20124;-78
2022/05/25 01:33:36;;;;;;;5.00;0.75;;;;;;;10.82;78.61;100457.97;5014318;28;20505;-78
2022/05/25 01:37:07;;;;;;;4.28;1.70;;;;;;;10.77;79.15;100454.75;5013148;28;20095;-78
2022/05/25 01:40:37;;;;;;;3.95;1.13;;;;;;;10.77;78.83;100464.38;5014151;28;20045;-78
2022/05/25 01:44:05;;;;;;;5.22;0.75;;;;;;;10.77;78.35;100461.75;5013997;28;20053;-78
2022/05/25 01:47:10;;;;;;;1.55;0.68;;;;;;;10.77;78.34;100475.66;5014068;28;20069;-78
2022/05/25 01:50:22;;;;;;;3.33;0.68;;;;;;;10.84;78.31;100471.78;5014048;28;20095;-78
2022/05/25 01:53:33;;;;;;;4.03;0.60;;;;;;;10.73;78.37;100475.94;5014020;28;20405;-78
2022/05/25 01:56:41;;;;;;;1.60;0.50;;;;;;;10.60;78.71;100473.13;5014082;28;20049;-78
2022/05/25 01:59:45;;;;;;;5.07;0.52;;;;;;;10.70;78.29;100474.31;5013863;28;20041;-78
2022/05/25 02:06:39;;;;;;;3.50;0.50;;;;;;;10.86;77.26;100472.56;5012567;28;20052;-78
2022/05/25 02:09:42;;;;;;;1.23;0.50;;;;;;;10.90;76.67;100483.69;5013848;28;20092;-78
2022/05/25 02:13:00;;;;;;;4.00;0.50;;;;;;;10.99;76.07;100484.97;5013585;28;20092;-78
2022/05/25 02:16:34;;;;;;;4.60;0.90;;;;;;;10.79;76.46;100473.81;5013550;28;20465;-78
2022/05/25 02:19:52;;;;;;;1.65;0.60;;;;;;;10.95;75.36;100473.84;5013857;28;20048;-78
2022/05/25 02:23:17;;;;;;;4.05;0.60;;;;;;;10.93;75.08;100476.53;5013439;28;20112;-78
2022/05/25 02:26:32;;;;;;;1.83;0.63;;;;;;;10.69;75.48;100483.94;5013557;28;20209;-78
2022/05/25 02:29:39;;;;;;;1.25;0.30;;;;;;;10.68;75.54;100479.63;5013374;28;20092;-78
2022/05/25 02:33:00;;;;;;;3.60;0.65;;;;;;;10.56;76.00;100484.66;5013507;28;20406;-78
2022/05/25 02:36:06;;;;;;;4.10;0.52;;;;;;;10.47;75.99;100483.38;5012101;28;20044;-78
2022/05/25 02:39:11;;;;;;;7.50;0.77;;;;;;;10.50;76.17;100482.34;5013305;28;20056;-78
2022/05/25 02:42:16;;;;;;;10.75;1.08;;;;;;;10.39;76.42;100486.38;5012755;28;20126;-78
2022/05/25 02:45:19;;;;;;;5.32;1.00;;;;;;;10.31;76.82;100499.03;5001123;28;20056;-78
2022/05/25 02:48:23;;;;;;;5.00;0.80;;;;;;;10.33;76.93;100502.38;5013186;28;20053;-78
2022/05/25 02:51:26;;;;;;;4.88;0.70;;;;;;;10.30;76.78;100494.69;5012985;28;20045;-78
2022/05/25 02:54:29;;;;;;;3.47;0.75;;;;;;;10.34;76.45;100488.41;5000852;28;20049;-78
2022/05/25 02:57:33;;;;;;;;;;;;;;;10.23;76.61;100501.13;5013286;28;20037;-78
2022/05/25 03:00:36;;;;;;;;;;;;;;;10.27;76.58;100499.25;5013611;28;19936;-78
2022/05/25 03:03:40;;;;;;;1.98;0.70;;;;;;;10.25;76.73;100504.53;5012921;28;20412;-78
2022/05/25 03:06:44;;;;;;;2.17;0.73;;;;;;;10.22;76.73;100507.28;5010915;28;20156;-78
2022/05/25 03:09:47;;;;;;;4.22;0.70;;;;;;;10.32;77.09;100508.53;5012913;28;20049;-78
2022/05/25 03:12:50;;;;;;;3.95;0.60;;;;;;;10.37;76.29;100503.94;5012620;28;20076;-78
2022/05/25 03:15:58;;;;;;;9.02;0.85;;;;;;;10.31;76.48;100512.09;5012510;28;20076;-78
2022/05/25 03:19:01;;;;;;;2.72;0.68;;;;;;;10.24;76.42;100502.81;5012099;28;20044;-78
2022/05/25 03:22:06;;;;;;;10.68;0.77;;;;;;;10.26;75.71;100501.00;5012688;28;20076;-78
2022/05/25 03:25:10;;;;;;;5.43;0.63;;;;;;;10.06;75.98;100512.44;5000275;28;20136;-78
2022/05/25 03:28:14;;;;;;;7.72;0.77;;;;;;;10.22;75.82;100517.75;5012430;28;20049;-78
2022/05/25 03:31:17;;;;;;;3.25;0.50;;;;;;;9.94;75.88;100524.34;5012360;28;20076;-78
2022/05/25 03:34:22;;;;;;;5.82;0.90;;;;;;;9.92;76.38;100518.38;5012341;28;20099;-78
2022/05/25 03:37:27;;;;;;;9.57;1.45;;;;;;;9.68;77.45;100525.63;4662268;28;9999822;-78
2022/05/25 03:40:30;;;;;;;3.90;1.80;;;;;;;9.82;77.43;100530.16;5008514;28;20500;-78
2022/05/25 03:43:39;;;;;;;5.47;0.82;;;;;;;9.89;77.27;100533.31;4996431;28;20049;-78
2022/05/25 03:46:42;;;;;;;3.63;0.93;;;;;;;9.98;77.54;100527.66;5008655;28;20136;-78
2022/05/25 03:49:46;;;;;;;3.50;0.80;;;;;;;10.06;77.60;100542.97;4995993;28;20084;-78
2022/05/25 03:52:50;;;;;;;2.38;0.95;;;;;;;10.13;77.35;100544.34;5008771;28;20137;-78
2022/05/25 03:55:53;;;;;;;6.15;1.20;;;;;;;9.92;79.24;100544.50;5012074;28;20080;-78
2022/05/25 03:58:56;;;;;;;2.72;1.10;;;;;;;10.05;78.34;100543.84;5012360;28;20128;-78
2022/05/25 04:02:01;;;;;;;2.25;0.98;;;;;;;10.11;78.02;100544.41;5012206;28;20425;-78
2022/05/25 04:05:08;;;;;;;3.47;1.00;;;;;;;10.10;78.25;100539.25;5012523;28;20052;-78
2022/05/25 04:08:13;;;;;;;1.73;0.70;;;;;;;10.28;77.65;100546.22;5012106;28;20048;-77
2022/05/25 04:11:17;;;;;;;5.15;0.95;;;;;;;10.19;77.75;100555.31;5012997;28;20068;-77
2022/05/25 04:14:20;;;;;;;2.97;0.80;;;;;;;10.18;77.56;100558.03;5011789;28;20045;-77
2022/05/25 04:17:23;;;;;;;1.70;0.88;;;;;;;9.90;78.98;100572.44;5012332;28;20075;-77
2022/05/25 04:20:29;;;;;;;2.83;0.90;;;;;;;10.10;78.37;100563.63;4330508;28;10000574;-77
2022/05/25 04:23:33;;;;;;;2.67;0.80;;;;;;;10.08;78.03;100575.91;5019245;28;20123;-77
2022/05/25 04:26:36;;;;;;;2.53;1.00;;;;;;;10.09;77.46;100571.53;4984539;28;20100;-77
2022/05/25 04:29:39;;;;;;;2.60;0.65;;;;;;;10.06;77.30;100575.16;4996434;28;20045;-77
2022/05/25 04:32:43;;;;;;;3.60;0.95;;;;;;;10.18;76.85;100573.72;4996198;28;20517;-77
2022/05/25 04:35:47;;;;;;;3.83;1.13;;;;;;;10.11;76.72;100577.53;5003736;28;20048;-77
2022/05/25 04:38:51;;;;;;;5.78;1.05;;;;;;;10.04;76.81;100579.59;5015311;28;20048;-77
2022/05/25 04:41:54;;;;;;;;;;;;;;;10.01;76.30;100582.34;5016162;28;20482;-77
2022/05/25 04:45:03;;;;;;;2.60;0.90;;;;;;;10.00;76.57;100583.28;5003451;28;20392;-77
2022/05/25 04:48:07;;;;;;;2.30;0.93;;;;;;;10.06;76.88;100587.38;5015447;28;20500;-77
2022/05/25 04:51:12;;;;;;;4.03;1.10;;;;;;;10.08;77.54;100586.34;5003100;28;20175;-77
2022/05/25 04:54:15;;;;;;;2.03;0.73;;;;;;;10.04;77.90;100590.03;5015093;28;20040;-77
2022/05/25 04:57:19;;;;;;;2.65;0.70;;;;;;;9.92;77.98;100595.84;5015147;28;20552;-77
2022/05/25 05:00:23;;;;;;;3.88;1.23;;;;;;;10.01;78.05;100601.47;5014640;28;20576;-77
2022/05/25 05:03:28;;;;;;;2.72;0.80;;;;;;;10.12;78.21;100607.97;5015138;28;20092;-77
2022/05/25 05:06:31;;;;;;;8.38;1.13;;;;;;;10.01;78.28;100605.88;5013394;28;20057;-77
2022/05/25 05:09:38;;;;;;;3.22;0.63;;;;;;;9.47;80.50;100623.22;5015023;28;20045;-77
2022/05/25 05:12:41;;;;;;;2.15;0.63;;;;;;;9.89;79.81;100606.44;5015131;28;20103;-77
2022/05/25 05:15:46;;;;;;;;;;;;;;;10.13;78.68;100614.88;5015301;28;20099;-77
2022/05/25 05:18:50;;;;;;;1.50;0.55;;;;;;;10.07;78.52;100620.41;5014676;28;20434;-77
2022/05/25 05:22:13;;;;;;;3.28;1.00;;;;;;;9.85;79.63;100621.44;5014484;28;20045;-77
2022/05/25 05:25:19;;;;;;;4.03;1.20;;;;;;;9.85;79.98;100623.19;5012446;28;20517;-77
2022/05/25 05:28:31;;;;;;;7.22;1.27;;;;;;;9.80;80.23;100633.03;5005042;28;20053;-76
2022/05/25 05:31:35;;;;;;;3.53;1.10;;;;;;;9.75;81.49;100634.06;5014846;28;20056;-77
2022/05/25 05:34:39;;;;;;;4.07;1.13;;;;;;;9.85;80.79;100631.88;5014684;28;20288;-77
2022/05/25 05:37:50;;;;;;;2.85;0.93;;;;;;;9.80;81.06;100639.09;5002375;28;20099;-77
2022/05/25 05:40:54;;;;;;;1.67;0.90;;;;;;;9.87;80.78;100626.59;5014430;28;20053;-77
2022/05/25 05:43:58;;;;;;;4.53;0.90;;;;;;;9.90;81.09;100632.50;5014211;28;20048;-77
2022/05/25 05:47:06;;;;;;;2.42;1.10;;;;;;;9.81;81.43;100643.41;5014143;28;20057;-77
2022/05/25 05:50:11;;;;;;;1.98;0.60;;;;;;;10.01;80.33;100637.22;5001817;28;20056;-77
2022/05/25 05:53:15;;;;;;;4.22;0.63;;;;;;;10.13;80.12;100641.00;5013050;28;20065;-77
2022/05/25 05:56:19;;;;;;;3.67;0.98;;;;;;;10.21;79.97;100644.06;5013987;28;20170;-77
2022/05/25 05:59:23;;;;;;;1.67;0.57;;;;;;;10.26;80.26;100652.59;5013992;28;20509;-77
2022/05/25 06:02:26;;;;;;;1.92;0.63;;;;;;;10.30;80.42;100654.13;5013673;28;20055;-77
2022/05/25 06:05:29;;;;;;;;;;;;;;;10.38;80.71;100652.00;5013981;28;20045;-77
2022/05/25 06:08:32;;;;;;;3.15;0.50;;;;;;;10.77;79.61;100648.28;5013676;28;20192;-77
2022/05/25 06:11:41;;;;;;;4.80;0.88;;;;;;;10.84;80.23;100649.66;5014324;28;20048;-77
2022/05/25 06:14:44;;;;;;;1.95;0.70;;;;;;;10.96;80.07;100652.59;5013780;28;20071;-77
2022/05/25 06:21:10;;;;;;;1.95;0.60;;;;;;;11.15;79.75;100664.63;5013225;28;20506;-77
2022/05/25 06:24:13;;;;;;;2.22;0.70;;;;;;;11.43;79.13;100657.94;5013177;28;20089;-77
2022/05/25 06:27:18;;;;;;;2.90;0.80;;;;;;;11.71;78.08;100659.91;5001408;28;20131;-77
2022/05/25 06:30:22;;;;;;;1.85;0.70;;;;;;;11.81;78.13;100658.47;5013185;28;20073;-78
2022/05/25 06:33:26;;;;;;;1.80;0.50;;;;;;;12.01;78.11;100659.16;5013388;28;20074;-77
2022/05/25 06:36:29;;;;;;;1.42;0.40;;;;;;;12.19;77.91;100652.00;5002663;28;20041;-77
2022/05/25 06:39:36;;;;;;;1.95;0.70;;;;;;;12.16;79.29;100649.59;5032878;28;20068;-77
2022/05/25 06:42:41;;;;;;;2.53;0.40;;;;;;;12.30;77.85;100652.25;4978222;28;20493;-77
2022/05/25 06:45:45;;;;;;;1.98;0.80;;;;;;;12.29;76.38;100654.03;4950885;29;20042;-77
2022/05/25 06:48:51;;;;;;;5.43;0.68;;;;;;;12.50;74.55;100656.34;4954290;29;20407;-80
2022/05/25 06:51:55;;;;;;;5.80;0.90;;;;;;;12.66;71.96;100672.03;4954652;29;20046;-77
2022/05/25 06:54:59;;;;;;;2.15;0.55;;;;;;;12.72;71.09;100669.91;4955087;29;20090;-77
2022/05/25 06:58:03;;;;;;;1.52;0.68;;;;;;;12.76;71.00;100667.94;4954505;29;20447;-77
2022/05/25 07:01:07;;;;;;;2.95;0.98;;;;;;;12.77;69.86;100677.50;4954496;29;20050;-77
2022/05/25 07:04:11;;;;;;;5.18;0.98;;;;;;;12.58;70.55;100669.88;4954555;29;20054;-77
2022/05/25 07:07:15;;;;;;;3.55;0.90;;;;;;;12.78;70.20;100671.31;4954397;29;20109;-77
2022/05/25 07:10:18;;;;;;;2.38;0.80;;;;;;;12.81;69.62;100676.38;4954505;29;20038;-77
2022/05/25 07:13:22;;;;;;;3.33;0.82;;;;;;;12.85;70.23;100682.28;4954113;29;20077;-77
2022/05/25 07:16:26;;;;;;;4.82;0.88;;;;;;;13.03;69.99;100691.72;4954103;29;20106;-77
2022/05/25 07:19:30;;;;;;;2.63;1.13;;;;;;;13.13;69.51;100687.59;4954123;29;20050;-77
2022/05/25 07:22:34;;;;;;;3.53;0.70;;;;;;;13.10;69.65;100686.94;4953752;29;20196;-77
2022/05/25 07:25:37;;;;;;;4.38;1.38;;;;;;;13.20;68.73;100688.91;4910814;29;20413;-77
2022/05/25 07:28:41;;;;;;;3.22;0.90;;;;;;;13.29;68.36;100697.19;4896885;29;20056;-76
2022/05/25 07:31:53;;;;;;;5.07;1.10;;;;;;;13.38;68.07;100704.53;4897388;29;20144;-77
2022/05/25 07:35:03;;;;;;;3.50;1.00;;;;;;;13.47;68.28;100707.44;4896712;29;20052;-76
2022/05/25 07:38:07;;;;;;;8.43;1.00;;;;;;;13.58;68.23;100696.25;4897028;29;20051;-76
2022/05/25 07:41:11;;;;;;;5.10;0.93;;;;;;;13.71;67.51;100701.59;4897027;29;20051;-76
2022/05/25 07:44:21;;;;;;;5.55;1.77;;;;;;;13.76;66.31;100703.94;4903257;29;20091;-77
2022/05/25 07:47:26;;;;;;;4.72;1.20;;;;;;;13.85;65.78;100703.38;4896739;29;20068;-77
2022/05/25 07:50:31;;;;;;;4.53;1.20;;;;;;;13.90;64.77;100701.28;4896605;29;20104;-77
2022/05/25 07:56:56;;;;;;;3.80;1.35;;;;;;;14.05;65.40;100705.56;4925911;29;20654;-77
2022/05/25 08:00:00;;;;;;;7.25;0.98;;;;;;;14.15;64.68;100701.38;4915889;29;20080;-77
2022/05/25 08:06:27;;;;;;;5.05;0.90;;;;;;;14.31;63.55;100701.25;4916565;29;20112;-77
2022/05/25 08:09:33;;;;;;;2.97;0.57;;;;;;;14.43;63.77;100696.97;4915662;29;20059;-77
2022/05/25 08:12:38;;;;;;;3.10;0.68;;;;;;;14.53;59.56;100698.09;4915719;29;20055;-77
2022/05/25 08:15:43;;;;;;;3.90;0.68;;;;;;;14.45;58.90;100686.34;4915577;29;20075;-77
2022/05/25 08:18:47;;;;;;;6.85;0.75;;;;;;;14.84;58.70;100686.38;4915187;29;20051;-77
2022/05/25 08:21:54;;;;;;;4.75;1.63;;;;;;;14.86;57.73;100673.09;4915366;29;20091;-76
2022/05/25 08:24:58;;;;;;;3.65;1.33;;;;;;;14.94;59.19;100681.31;4953044;29;20136;-76
2022/05/25 08:28:02;;;;;;;3.28;0.70;;;;;;;15.07;58.37;100679.53;4953295;29;20407;-77
2022/05/25 08:31:06;;;;;;;3.92;1.00;;;;;;;15.17;57.68;100676.25;4952634;29;20130;-77
2022/05/25 08:34:10;;;;;;;2.58;0.85;;;;;;;15.08;56.78;100678.56;4952990;29;20042;-77
2022/05/25 08:37:13;;;;;;;4.63;0.60;;;;;;;15.09;57.03;100682.91;4953559;29;20042;-77
2022/05/25 08:40:19;;;;;;;3.92;0.73;;;;;;;15.15;54.91;100670.25;4954453;28;20137;-77
2022/05/25 08:43:38;;;;;;;2.50;0.50;;;;;;;15.16;55.95;100674.59;4953636;29;20051;-77
2022/05/25 08:46:42;;;;;;;3.60;0.60;;;;;;;15.26;54.28;100667.72;4956605;29;20042;-77
2022/05/25 08:49:48;;;;;;;6.78;0.95;;;;;;;15.43;53.10;100667.38;4957710;29;20066;-76
2022/05/25 08:52:56;;;;;;;4.18;0.20;;;;;;;15.55;52.67;100668.31;4956721;28;20203;-77
2022/05/25 08:56:34;;;;;;;2.10;0.35;;;;;;;15.64;52.06;100682.66;4957839;29;20407;-76
2022/05/25 08:59:45;;;;;;;3.55;0.70;;;;;;;15.64;49.38;100672.09;4957939;29;20098;-76
2022/05/25 09:03:01;;;;;;;1.95;0.28;;;;;;;15.71;48.65;100676.00;4957205;29;20053;-77
2022/05/25 09:06:43;;;;;;;8.20;0.93;;;;;;;15.80;48.88;100675.34;4956801;29;20049;-76
2022/05/25 09:09:49;;;;;;;5.47;0.52;;;;;;;15.86;48.52;100669.66;4956722;29;20493;-78
2022/05/25 09:13:01;;;;;;;1.50;0.25;;;;;;;15.93;47.56;100662.13;4956336;29;20046;-77
2022/05/25 09:16:18;;;;;;;0.63;0.10;;;;;;;16.03;47.64;100661.34;4956481;29;20459;-77
2022/05/25 09:19:26;;;;;;;0.73;0.20;;;;;;;16.10;48.60;100666.16;4956086;29;20045;-77
2022/05/25 09:22:33;;;;;;;0.68;0.10;;;;;;;16.14;47.32;100667.63;4955991;28;20042;-77
2022/05/25 09:25:37;;;;;;;2.78;0.40;;;;;;;16.00;47.33;100680.03;4954464;29;20134;-77
2022/05/25 09:28:44;;;;;;;3.13;0.20;;;;;;;16.14;48.38;100678.16;4938180;29;20166;-77
2022/05/25 09:31:51;;;;;;;1.63;0.20;;;;;;;16.31;46.65;100684.88;4947730;29;20396;-77
2022/05/25 09:35:09;;;;;;;0.90;0.10;;;;;;;16.23;47.69;100688.88;4957032;29;20050;-77
2022/05/25 09:38:44;;;;;;;2.95;0.40;;;;;;;16.22;46.36;100681.94;4956930;29;20066;-77
2022/05/25 09:41:54;;;;;;;1.27;0.20;;;;;;;16.31;46.19;100669.03;4955874;29;20506;-77
2022/05/25 09:45:00;;;;;;;1.67;0.20;;;;;;;16.39;47.87;100672.75;4956009;29;20127;-77
2022/05/25 09:48:22;;;;;;;2.78;0.52;;;;;;;16.36;44.84;100677.44;4951411;29;20106;-77
2022/05/25 09:51:29;;;;;;;2.40;0.77;;;;;;;16.55;45.49;100672.47;4956448;28;20391;-77
2022/05/25 09:54:36;;;;;;;1.42;0.20;;;;;;;16.44;45.17;100669.81;4956208;29;20089;-77
2022/05/25 09:57:55;;;;;;;2.28;0.30;;;;;;;16.43;45.25;100679.53;4953774;29;20505;-78
2022/05/25 10:01:03;;;;;;;1.38;0.38;;;;;;;16.41;45.61;100676.16;4955596;29;20147;-77
2022/05/25 10:04:08;;;;;;;2.30;0.50;;;;;;;16.55;46.18;100680.38;4955191;29;20190;-77
2022/05/25 10:07:18;;;;;;;0.95;0.25;;;;;;;16.52;45.19;100681.44;4955662;29;20069;-77
2022/05/25 10:10:31;;;;;;;2.35;0.40;;;;;;;16.68;46.05;100677.66;4955025;29;20090;-77
2022/05/25 10:13:40;;;;;;;;;;;;;;;16.61;45.17;100676.44;4955832;29;20138;-77
2022/05/25 10:16:44;;;;;;;3.67;0.25;;;;;;;16.85;44.37;100682.56;4955162;29;19921;-77
2022/05/25 10:19:50;;;;;;;2.35;0.35;;;;;;;16.94;45.03;100692.44;4955692;29;20054;-77
2022/05/25 10:23:24;;;;;;;2.80;0.38;;;;;;;17.05;45.13;100674.91;4954919;29;20122;-77
2022/05/25 10:26:45;;;;;;;2.53;0.43;;;;;;;17.14;44.47;100668.91;4954734;29;20119;-77
2022/05/25 10:37:08;;;;;;;2.03;0.30;;;;;;;17.42;44.89;100664.94;4955227;29;20513;-77
2022/05/25 10:40:11;;;;;;;2.40;0.25;;;;;;;17.47;42.88;100669.88;4954504;29;20290;-77
2022/05/25 10:43:22;;;;;;;3.10;0.30;;;;;;;17.24;43.23;100663.75;4955156;29;20403;-78
2022/05/25 10:46:27;;;;;;;5.82;0.40;;;;;;;17.02;43.76;100668.06;4953331;29;20050;-78
2022/05/25 10:49:42;;;;;;;2.00;0.32;;;;;;;17.23;42.71;100668.22;4952740;29;20043;-77
2022/05/25 10:52:50;;;;;;;1.05;0.20;;;;;;;17.21;42.23;100654.25;4954708;29;20415;-77
2022/05/25 10:56:04;;;;;;;2.08;0.20;;;;;;;17.39;43.30;100647.53;4954188;29;20502;-77
2022/05/25 10:59:28;;;;;;;2.22;0.20;;;;;;;17.97;42.11;100688.84;4953429;29;20167;-78
2022/05/25 11:02:59;;;;;;;1.80;0.38;;;;;;;17.83;40.64;100661.66;4953457;28;20050;-77
2022/05/25 11:06:37;;;;;;;4.07;0.30;;;;;;;17.92;40.65;100656.63;4954112;29;20392;-77
2022/05/25 11:10:02;;;;;;;2.20;0.30;;;;;;;17.86;41.77;100661.44;4953757;29;20082;-77
2022/05/25 11:13:30;;;;;;;3.33;0.35;;;;;;;18.11;43.40;100664.75;4954182;29;20102;-77
2022/05/25 11:16:50;;;;;;;2.83;0.20;;;;;;;17.92;41.32;100665.38;4944497;29;20099;-78
2022/05/25 11:20:09;;;;;;;1.52;0.20;;;;;;;18.18;39.49;100676.50;4952084;28;20054;-77
2022/05/25 11:23:25;;;;;;;3.10;0.40;;;;;;;18.04;38.30;100680.28;4953782;29;20546;-78
2022/05/25 11:26:44;;;;;;;1.27;0.30;;;;;;;18.10;37.97;100684.25;4948285;29;20103;-77
2022/05/25 11:29:58;;;;;;;2.95;0.50;;;;;;;18.13;38.62;100684.00;4935132;29;20076;-78
2022/05/25 11:33:19;;;;;;;6.18;0.40;;;;;;;18.14;39.21;100669.78;4944187;29;20454;-77
2022/05/25 11:36:44;;;;;;;1.40;0.30;;;;;;;18.13;39.55;100660.16;4953601;29;20101;-77
2022/05/25 11:40:12;;;;;;;1.55;0.30;;;;;;;18.34;39.00;100655.72;4950120;29;20037;-78
2022/05/25 11:43:45;;;;;;;1.58;0.32;;;;;;;18.22;39.47;100654.13;4951372;29;20411;-78
2022/05/25 11:46:50;;;;;;;2.33;0.22;;;;;;;17.95;36.57;100656.38;4948992;29;20717;-77
2022/05/25 11:50:15;;;;;;;2.20;0.10;;;;;;;18.16;37.16;100659.91;4950870;28;20050;-78
2022/05/25 11:54:10;;;;;;;2.03;0.30;;;;;;;18.46;36.84;100659.19;4949582;29;20046;-77
2022/05/25 11:57:38;;;;;;;0.82;0.20;;;;;;;18.58;36.40;100642.28;4941205;28;20086;-78
2022/05/25 12:00:48;;;;;;;2.33;0.40;;;;;;;18.76;36.26;100634.63;4949617;29;20047;-78
2022/05/25 12:04:00;;;;;;;1.70;0.22;;;;;;;18.57;36.42;100672.38;4951268;29;20057;-78
2022/05/25 12:07:41;;;;;;;2.38;0.35;;;;;;;18.78;36.91;100643.25;4952499;29;20049;-76
2022/05/25 12:10:54;;;;;;;1.92;0.20;;;;;;;18.72;35.67;100643.78;4950108;29;20042;-78
2022/05/25 12:14:31;;;;;;;2.22;0.30;;;;;;;19.06;36.20;100662.13;4952985;28;21118;-78
2022/05/25 12:17:37;;;;;;;1.63;0.50;;;;;;;19.00;36.17;100662.63;4955966;29;20045;-78
2022/05/25 12:20:59;;;;;;;2.97;0.40;;;;;;;19.09;35.64;100653.91;4956520;28;20050;-78
2022/05/25 12:24:11;;;;;;;1.33;0.20;;;;;;;18.91;35.54;100645.72;4956418;29;20053;-78
2022/05/25 12:27:22;;;;;;;3.42;0.43;;;;;;;19.44;37.34;100634.94;4956023;29;20061;-77
2022/05/25 12:30:32;;;;;;;4.70;0.30;;;;;;;19.79;37.34;100630.16;4971584;28;20094;-77
2022/05/25 12:33:37;;;;;;;1.50;0.25;;;;;;;20.02;35.48;100644.84;4956683;29;20050;-76
2022/05/25 12:36:42;;;;;;;2.05;0.40;;;;;;;20.14;34.73;100654.38;4956611;29;20542;-76
2022/05/25 12:39:45;;;;;;;1.27;0.28;;;;;;;20.30;35.13;100660.94;4955188;29;20083;-82
2022/05/25 12:42:49;;;;;;;2.47;0.40;;;;;;;20.55;33.35;100654.22;4955581;29;20046;-77
2022/05/25 12:49:31;;;;;;;1.00;0.30;;;;;;;20.11;34.19;100640.53;4951865;28;20097;-78
2022/05/25 12:52:41;;;;;;;2.25;0.63;;;;;;;20.77;33.23;100642.44;4952886;29;20073;-76
2022/05/25 12:56:05;;;;;;;2.72;0.28;;;;;;;20.32;33.37;100645.69;4954366;29;20742;-79
2022/05/25 12:59:12;;;;;;;2.35;0.40;;;;;;;20.10;33.64;100647.66;4955632;29;20078;-78
2022/05/25 13:02:19;;;;;;;3.17;0.50;;;;;;;19.96;33.31;100638.28;4956528;29;20215;-78
2022/05/25 13:05:59;;;;;;;2.40;0.38;;;;;;;19.98;32.76;100644.28;4955703;29;20094;-77
2022/05/25 13:09:07;;;;;;;1.13;0.22;;;;;;;19.54;34.40;100640.25;4954822;29;20047;-79
2022/05/25 13:12:39;;;;;;;4.13;0.43;;;;;;;21.13;32.09;100639.00;4954213;29;20106;-78
2022/05/25 13:15:44;;;;;;;2.35;0.25;;;;;;;21.58;31.23;100640.91;4956239;29;20042;-78
2022/05/25 13:18:53;;;;;;;1.73;0.30;;;;;;;21.06;31.87;100637.91;4956835;29;20082;-78
2022/05/25 13:22:03;;;;;;;2.50;0.30;;;;;;;19.82;33.91;100644.00;4956071;29;20070;-78
2022/05/25 13:25:27;;;;;;;1.35;0.30;;;;;;;21.09;32.13;100648.25;4955941;29;20054;-78
2022/05/25 13:28:49;;;;;;;3.97;0.40;;;;;;;21.27;32.28;100632.34;4955366;29;20086;-79
2022/05/25 13:32:27;;;;;;;4.35;0.40;;;;;;;20.89;32.37;100617.38;4956764;29;20050;-78
2022/05/25 13:35:45;;;;;;;1.92;0.35;;;;;;;22.16;30.24;100612.25;4955257;29;20074;-78
2022/05/25 13:38:57;;;;;;;4.13;0.90;;;;;;;21.85;30.72;100620.56;4965982;28;20046;-78
2022/05/25 13:42:10;;;;;;;4.18;0.32;;;;;;;20.36;32.54;100626.69;4956317;29;20089;-78
2022/05/25 13:45:27;;;;;;;1.92;0.40;;;;;;;21.52;31.21;100636.19;4955713;29;20046;-78
2022/05/25 13:48:30;;;;;;;1.60;0.20;;;;;;;21.97;29.71;100622.03;4955747;29;20080;-78
2022/05/25 13:51:34;;;;;;;2.60;0.30;;;;;;;20.92;31.93;100627.72;4954124;29;20054;-78
2022/05/25 13:54:39;;;;;;;3.72;0.43;;;;;;;20.44;33.51;100628.63;4956027;29;20081;-78
2022/05/25 13:57:51;;;;;;;2.17;0.28;;;;;;;20.70;32.98;100636.88;4954964;29;20454;-78
2022/05/25 14:00:55;;;;;;;2.90;0.70;;;;;;;21.63;31.79;100628.97;4955388;29;20054;-78
2022/05/25 14:04:04;;;;;;;3.13;0.40;;;;;;;23.38;28.97;100615.69;4955315;29;20093;-79
2022/05/25 14:07:09;;;;;;;1.35;0.22;;;;;;;21.62;31.72;100624.66;4954684;29;20069;-78
2022/05/25 14:13:55;;;;;;;1.83;0.28;;;;;;;22.11;30.96;100614.50;4955238;29;20153;-78
2022/05/25 14:17:05;;;;;;;2.08;0.30;;;;;;;20.75;33.70;100625.84;4955103;29;20062;-79
2022/05/25 14:20:14;;;;;;;1.63;0.30;;;;;;;22.30;31.50;100614.34;4965449;28;20141;-78
2022/05/25 14:23:28;;;;;;;3.13;0.60;;;;;;;20.74;33.09;100624.13;4956197;29;20094;-79
2022/05/25 14:26:34;;;;;;;3.40;0.60;;;;;;;25.23;27.60;100628.66;4956161;29;20547;-78
2022/05/25 14:29:39;;;;;;;2.00;0.20;;;;;;;24.39;26.87;100619.25;4954879;29;20415;-79
2022/05/25 14:32:57;;;;;;;1.98;0.35;;;;;;;22.62;29.59;100620.94;4954873;29;20125;-78
2022/05/25 14:36:03;;;;;;;29.48;8.02;;;;;;;21.28;32.33;100623.41;4954632;29;20066;-78
2022/05/25 14:39:13;;;;;;;8.25;5.80;;;;;;;21.88;30.87;100641.56;4954393;28;20152;-79
2022/05/25 14:42:21;;;;;;;9.82;1.05;;;;;;;23.52;28.23;100635.63;4955210;29;20571;-79
2022/05/25 14:45:26;;;;;;;2.85;0.77;;;;;;;21.54;31.09;100650.19;4954617;29;20118;-79
2022/05/25 14:48:30;;;;;;;2.60;0.90;;;;;;;21.70;30.01;100646.06;4953835;28;20913;-78
2022/05/25 14:55:22;;;;;;;10.95;9.63;;;;;;;26.73;22.76;100619.28;4935815;29;20287;-78
2022/05/25 14:58:46;;;;;;;1.98;0.80;;;;;;;24.32;26.06;100625.25;4935898;29;20463;-78
2022/05/25 15:01:56;;;;;;;1.80;0.90;;;;;;;21.81;29.20;100632.50;4935631;29;20050;-79
2022/05/25 15:04:59;;;;;;;3.65;1.73;;;;;;;21.90;29.35;100631.63;4935308;29;20058;-79
2022/05/25 15:08:04;;;;;;;2.45;0.60;;;;;;;22.19;29.62;100630.59;4935523;29;20146;-79
2022/05/25 15:11:25;;;;;;;3.00;0.55;;;;;;;24.93;24.80;100617.69;4934538;29;20046;-79
2022/05/25 15:21:23;;;;;;;2.65;0.80;;;;;;;24.70;25.22;100630.13;4950099;29;20281;-78
2022/05/25 15:24:27;;;;;;;2.72;0.50;;;;;;;27.24;22.59;100623.97;4951387;29;20046;-76
2022/05/25 15:27:36;;;;;;;1.88;0.57;;;;;;;25.88;23.30;100627.53;4934791;29;20054;-79
2022/05/25 15:30:42;;;;;;;2.45;0.88;;;;;;;26.12;22.47;100621.16;4934670;29;20066;-80